Time;durP1;ratioP1;P1;durP2;ratioP2;P2;SDS_P1;SDS_P2;PMS_P1;PMS_P2;Temp;Humidity;BMP_temperature;BMP_pressure;BME280_temperature;BME280_humidity;BME280_pressure;Samples;Min_cycle;Max_cycle;Signal;HPM_P1;HPM_P2
2022/10/07 00:02:59;;;;;;;26.30;17.70;;;;;;;4.06;83.99;100964.58;446242;1273;144228;-62
2022/10/07 00:13:04;;;;;;;25.40;18.00;;;;;;;3.90;83.92;100961.17;447038;1273;144746;-62
2022/10/07 00:23:10;;;;;;;23.40;17.70;;;;;;;3.74;83.87;100959.50;446344;1273;162990;-64
2022/10/07 00:33:16;;;;;;;21.60;16.10;;;;;;;3.66;84.38;100958.55;446640;1275;143888;-63
2022/10/07 00:43:25;;;;;;;21.10;16.40;;;;;;;3.55;83.93;100955.94;447071;1273;144406;-63
2022/10/07 00:53:34;;;;;;;22.00;16.70;;;;;;;3.45;83.76;100955.17;430178;1273;143614;-64
2022/10/07 01:03:41;;;;;;;26.50;17.40;;;;;;;3.32;83.82;100952.05;446605;1275;142764;-62
2022/10/07 01:13:58;;;;;;;24.20;16.80;;;;;;;3.21;83.66;100944.91;447098;1273;144036;-62
2022/10/07 01:24:09;;;;;;;;;;;;;;;3.12;83.92;100942.43;446311;1273;143076;-62
2022/10/07 01:34:17;;;;;;;24.20;15.50;;;;;;;3.06;84.58;100943.70;447294;1273;131223;-63
2022/10/07 01:44:21;;;;;;;;;;;;;;;3.03;84.35;100949.27;444742;1273;143336;-62
2022/10/07 01:54:35;;;;;;;18.20;15.40;;;;;;;2.93;84.23;100945.58;437445;1273;175092;-63
2022/10/07 02:04:54;;;;;;;25.20;17.50;;;;;;;2.81;84.23;100940.32;447079;1273;188013;-64
2022/10/07 02:15:05;;;;;;;24.30;16.50;;;;;;;2.75;84.31;100940.04;446355;1273;142749;-62
2022/10/07 02:25:15;;;;;;;28.40;18.30;;;;;;;2.69;84.48;100926.95;444983;1273;143768;-61
2022/10/07 02:35:27;;;;;;;21.50;15.80;;;;;;;2.66;84.65;100919.04;446307;1271;204583;-62
2022/10/07 02:45:40;;;;;;;22.70;17.40;;;;;;;2.60;84.58;100916.33;445722;1273;144700;-62
2022/10/07 02:55:47;;;;;;;24.10;16.90;;;;;;;2.53;84.38;100913.63;446413;1275;202574;-61
2022/10/07 03:05:52;;;;;;;;;;;;;;;2.46;84.56;100912.83;446317;1273;143199;-61
2022/10/07 03:15:57;;;;;;;23.90;17.00;;;;;;;2.39;84.56;100911.16;447302;1273;129638;-62
2022/10/07 03:26:04;;;;;;;21.20;17.90;;;;;;;2.28;84.54;100906.23;446994;1273;143237;-61
2022/10/07 03:36:10;;;;;;;20.10;14.70;;;;;;;2.22;84.87;100900.77;447044;1271;142424;-61
2022/10/07 03:46:16;;;;;;;24.70;16.20;;;;;;;2.14;84.63;100888.73;444479;1272;143126;-62
2022/10/07 03:56:22;;;;;;;25.40;15.90;;;;;;;2.07;84.52;100883.77;446204;1273;142809;-63
2022/10/07 04:06:28;;;;;;;30.70;17.30;;;;;;;2.00;84.61;100881.42;447064;1273;144764;-63
2022/10/07 04:16:34;;;;;;;21.40;15.60;;;;;;;1.92;84.52;100882.34;447122;1272;143911;-61
2022/10/07 04:26:42;;;;;;;21.70;15.30;;;;;;;1.89;84.93;100876.99;445920;1275;143205;-61
2022/10/07 04:36:48;;;;;;;29.80;17.40;;;;;;;1.82;84.85;100869.80;447026;1271;146231;-63
2022/10/07 04:46:55;;;;;;;23.00;15.80;;;;;;;1.81;84.91;100864.29;443466;1272;144254;-61
2022/10/07 04:56:59;;;;;;;;;;;;;;;1.82;85.14;100863.41;445974;1271;143212;-62
2022/10/07 05:07:05;;;;;;;23.00;16.90;;;;;;;1.91;85.38;100852.82;446923;1275;128835;-62
2022/10/07 05:17:12;;;;;;;28.40;17.30;;;;;;;2.09;85.74;100851.45;446328;1273;184991;-62
2022/10/07 05:27:18;;;;;;;44.50;20.30;;;;;;;2.43;85.79;100853.05;447068;1273;143083;-62
2022/10/07 05:37:23;;;;;;;22.50;18.70;;;;;;;2.87;86.06;100843.41;446682;1275;143091;-62
2022/10/07 05:47:32;;;;;;;28.00;18.70;;;;;;;4.11;87.41;100844.12;442149;1273;142338;-60
2022/10/07 05:57:38;;;;;;;24.50;15.40;;;;;;;8.58;86.56;100839.27;446744;1271;142615;-62
2022/10/07 06:07:43;;;;;;;18.40;14.00;;;;;;;14.22;78.63;100831.34;447007;1271;145658;-62
2022/10/07 06:17:49;;;;;;;14.80;12.70;;;;;;;18.63;71.95;100827.08;446244;1272;143659;-62
2022/10/07 06:27:58;;;;;;;13.40;12.00;;;;;;;22.29;65.90;100820.21;446718;1275;142947;-62
2022/10/07 06:38:06;;;;;;;11.50;10.40;;;;;;;25.49;59.38;100813.59;447129;1273;143405;-63
2022/10/07 06:48:12;;;;;;;11.90;10.80;;;;;;;27.88;53.72;100810.98;434306;1271;142843;-62
2022/10/07 06:58:19;;;;;;;12.00;9.70;;;;;;;29.47;48.92;100806.79;447014;1273;142714;-62
2022/10/07 07:08:28;;;;;;;11.60;7.90;;;;;;;30.73;45.34;100808.54;443477;1274;142484;-61
2022/10/07 07:18:33;;;;;;;8.30;7.50;;;;;;;32.54;42.21;100806.76;446684;1273;142596;-63
2022/10/07 07:28:40;;;;;;;9.50;6.90;;;;;;;33.71;39.16;100803.95;447099;1273;143811;-62
2022/10/07 07:38:51;;;;;;;8.90;7.60;;;;;;;34.76;36.65;100798.26;444842;1273;142430;-62
2022/10/07 07:48:58;;;;;;;5.90;5.30;;;;;;;36.02;34.29;100794.27;445874;1272;143652;-62
2022/10/07 07:59:05;;;;;;;5.10;4.70;;;;;;;36.89;32.70;100785.17;447072;1273;184470;-61
2022/10/07 08:09:11;;;;;;;6.30;4.30;;;;;;;38.24;31.00;100777.23;447081;1273;142898;-62
2022/10/07 08:19:17;;;;;;;5.50;4.80;;;;;;;40.62;29.11;100767.38;447105;1272;142658;-62
2022/10/07 08:29:23;;;;;;;6.90;4.00;;;;;;;40.92;27.63;100761.52;446333;1271;144914;-62
2022/10/07 08:39:30;;;;;;;4.80;3.80;;;;;;;40.96;26.10;100749.59;447088;1273;142474;-62
2022/10/07 08:49:43;;;;;;;3.70;2.90;;;;;;;39.94;25.62;100742.05;441598;1273;164484;-61
2022/10/07 08:59:57;;;;;;;2.30;1.90;;;;;;;38.87;25.31;100728.77;446250;1273;141412;-63
2022/10/07 09:10:06;;;;;;;;;;;;;;;31.44;27.48;100715.52;447130;1273;141810;-62
2022/10/07 09:20:18;;;;;;;3.30;2.10;;;;;;;26.02;30.91;100714.21;446624;1273;130168;-63
2022/10/07 09:30:26;;;;;;;3.90;1.20;;;;;;;22.81;34.00;100714.27;447068;1271;141434;-62
2022/10/07 09:41:14;;;;;;;3.10;1.30;;;;;;;20.97;35.85;100706.73;447083;1273;142094;-63
2022/10/07 09:51:24;;;;;;;3.50;1.50;;;;;;;19.61;37.76;100700.20;438596;1273;141725;-62
2022/10/07 10:01:30;;;;;;;4.40;1.70;;;;;;;18.74;39.44;100686.33;447082;1273;141000;-64
2022/10/07 10:11:36;;;;;;;2.60;1.20;;;;;;;18.20;40.67;100672.88;446390;1271;145113;-64
2022/10/07 10:22:26;;;;;;;2.70;1.10;;;;;;;17.61;41.62;100657.20;412928;1314;600174;-63
2022/10/07 10:32:50;;;;;;;2.60;1.80;;;;;;;17.06;42.75;100644.33;432802;1295;141491;-66
2022/10/07 10:43:06;;;;;;;2.70;2.30;;;;;;;16.89;43.94;100627.89;433611;1291;141636;-62
2022/10/07 10:53:26;;;;;;;2.60;1.40;;;;;;;16.83;44.50;100611.89;429319;1293;141392;-62
2022/10/07 11:03:57;;;;;;;1.90;1.20;;;;;;;16.60;45.01;100588.82;433463;1287;141871;-62
2022/10/07 11:14:11;;;;;;;5.50;1.90;;;;;;;16.54;45.82;100573.20;433365;1292;141886;-61
2022/10/07 11:24:23;;;;;;;6.10;2.10;;;;;;;16.65;46.38;100555.54;433840;1283;194544;-62
2022/10/07 11:34:41;;;;;;;2.50;2.30;;;;;;;16.52;47.05;100529.13;434441;1290;141894;-63
2022/10/07 11:44:55;;;;;;;4.20;1.50;;;;;;;16.46;47.56;100508.90;433725;1291;141120;-65
2022/10/07 11:55:06;;;;;;;1.50;1.20;;;;;;;16.39;47.72;100486.26;422746;1291;141013;-63
2022/10/07 12:05:42;;;;;;;2.40;1.60;;;;;;;16.49;47.81;100466.09;434466;1288;141279;-62
2022/10/07 12:15:50;;;;;;;2.90;1.20;;;;;;;16.59;47.82;100449.95;435273;1287;140808;-62
2022/10/07 12:25:58;;;;;;;1.70;0.90;;;;;;;16.68;47.57;100427.39;435273;1284;141052;-63
2022/10/07 12:36:28;;;;;;;2.60;1.30;;;;;;;16.77;47.66;100408.15;434598;1292;141071;-62
2022/10/07 12:46:41;;;;;;;2.70;2.10;;;;;;;16.84;48.02;100390.94;427599;1286;140931;-62
2022/10/07 12:56:48;;;;;;;3.60;2.30;;;;;;;16.93;48.35;100375.23;420613;1285;141091;-63
2022/10/07 13:07:38;;;;;;;2.70;1.20;;;;;;;16.98;48.54;100356.10;435147;1288;140000;-62
2022/10/07 13:17:52;;;;;;;3.70;1.40;;;;;;;17.06;49.05;100339.02;435960;1282;141642;-63
2022/10/07 13:27:59;;;;;;;4.10;1.50;;;;;;;17.11;49.28;100330.70;436760;1281;140380;-62
2022/10/07 13:38:06;;;;;;;3.60;1.90;;;;;;;17.19;49.73;100314.66;436759;1280;141377;-63
2022/10/07 13:48:18;;;;;;;2.90;1.10;;;;;;;17.21;50.02;100297.56;436275;1281;199201;-63
2022/10/07 13:58:24;;;;;;;3.80;1.80;;;;;;;17.27;50.68;100282.55;429355;1283;140705;-63
2022/10/07 14:08:30;;;;;;;4.10;1.60;;;;;;;17.31;50.69;100271.63;435885;1281;141347;-63
2022/10/07 14:18:42;;;;;;;1.50;1.40;;;;;;;17.29;51.28;100246.29;436468;1281;141794;-63
2022/10/07 14:28:48;;;;;;;6.50;1.90;;;;;;;17.26;51.89;100232.95;431925;1282;142992;-62
2022/10/07 14:38:56;;;;;;;5.30;2.10;;;;;;;17.22;52.33;100216.62;420610;1275;141563;-64
2022/10/07 14:49:02;;;;;;;4.90;2.30;;;;;;;17.07;53.10;100202.41;436752;1286;179895;-62
2022/10/07 14:59:14;;;;;;;6.00;2.50;;;;;;;16.93;53.83;100182.70;436164;1276;143140;-63
2022/10/07 15:09:20;;;;;;;5.50;3.20;;;;;;;16.80;54.48;100171.34;436375;1282;210537;-62
2022/10/07 15:19:25;;;;;;;4.90;2.60;;;;;;;16.61;55.31;100164.40;436717;1287;142202;-62
2022/10/07 15:29:31;;;;;;;5.80;3.20;;;;;;;16.32;56.25;100156.06;436069;1280;142942;-62
2022/10/07 15:39:37;;;;;;;4.30;3.90;;;;;;;16.02;57.17;100144.41;436776;1287;142368;-63
2022/10/07 15:49:44;;;;;;;5.80;4.40;;;;;;;15.74;58.23;100142.99;436844;1280;140903;-63
2022/10/07 15:59:50;;;;;;;34.30;18.30;;;;;;;15.45;59.22;100139.88;430898;1282;141624;-63
2022/10/07 16:09:56;;;;;;;25.90;16.60;;;;;;;15.13;60.13;100135.23;436670;1286;141847;-62
2022/10/07 16:20:03;;;;;;;13.70;11.00;;;;;;;14.79;61.30;100131.89;436655;1284;142719;-62
2022/10/07 16:40:39;;;;;;;7.70;6.00;;;;;;;14.19;63.62;100125.19;436679;1278;142774;-63
2022/10/07 16:50:49;;;;;;;11.00;7.20;;;;;;;13.94;64.58;100118.16;434526;1282;141822;-61
2022/10/07 17:01:01;;;;;;;9.70;8.70;;;;;;;13.69;65.63;100109.45;436717;1282;142070;-62
2022/10/07 17:11:08;;;;;;;20.10;17.90;;;;;;;13.51;66.73;100102.25;436800;1287;142559;-62
2022/10/07 17:21:14;;;;;;;19.50;16.00;;;;;;;13.33;67.85;100097.48;436332;1280;197022;-63
2022/10/07 17:31:20;;;;;;;19.80;16.80;;;;;;;13.11;68.81;100088.55;432987;1276;142673;-62
2022/10/07 17:41:27;;;;;;;21.60;18.20;;;;;;;12.91;69.77;100086.48;435982;1288;142970;-62
2022/10/07 17:51:33;;;;;;;20.20;14.80;;;;;;;12.74;70.64;100080.03;434413;1282;142049;-62
2022/10/07 18:01:40;;;;;;;19.50;14.30;;;;;;;12.63;71.28;100073.73;434274;1282;142237;-62
2022/10/07 18:22:09;;;;;;;20.00;15.60;;;;;;;12.44;72.47;100056.80;436732;1280;142274;-62
2022/10/07 18:32:15;;;;;;;21.30;15.90;;;;;;;12.33;72.91;100050.51;435999;1282;142772;-64
2022/10/07 18:42:21;;;;;;;18.60;14.90;;;;;;;12.24;73.38;100048.83;436670;1281;143563;-63
2022/10/07 18:52:27;;;;;;;17.90;16.10;;;;;;;12.13;73.96;100040.17;434830;1287;142213;-62
2022/10/07 19:02:32;;;;;;;24.60;22.00;;;;;;;12.06;74.53;100036.41;424642;1282;143350;-62
2022/10/07 19:23:02;;;;;;;36.50;32.70;;;;;;;11.94;75.67;100038.00;436740;1281;142083;-62
2022/10/07 19:33:09;;;;;;;28.60;25.60;;;;;;;11.94;76.22;100031.91;425473;1281;142473;-62
2022/10/07 19:43:15;;;;;;;27.30;21.10;;;;;;;11.92;76.54;100027.07;420282;1275;142233;-62
2022/10/07 19:53:21;;;;;;;21.00;17.00;;;;;;;11.83;76.82;100019.92;432521;1281;142591;-62
2022/10/07 20:03:27;;;;;;;20.70;15.60;;;;;;;11.79;77.33;100010.33;432096;1275;147423;-63
2022/10/07 20:13:34;;;;;;;14.90;13.50;;;;;;;11.80;77.57;100004.16;436745;1280;142943;-63
2022/10/07 20:23:41;;;;;;;20.50;15.40;;;;;;;11.77;77.88;99996.94;436035;1278;142681;-61
2022/10/07 20:33:50;;;;;;;19.20;14.30;;;;;;;11.73;78.15;99985.13;436695;1284;146826;-62
2022/10/07 20:43:55;;;;;;;18.90;15.90;;;;;;;11.64;78.40;99978.98;436741;1282;142271;-63
2022/10/07 20:54:02;;;;;;;19.70;15.00;;;;;;;11.59;78.96;99971.21;431753;1274;143473;-61
2022/10/07 21:04:08;;;;;;;16.10;14.50;;;;;;;11.55;79.34;99963.77;436674;1283;143409;-62
2022/10/07 21:14:15;;;;;;;15.60;13.50;;;;;;;11.47;79.60;99951.80;436031;1282;143884;-62
2022/10/07 21:24:21;;;;;;;16.50;14.80;;;;;;;11.39;79.85;99937.97;436741;1275;142572;-62
2022/10/07 21:34:28;;;;;;;17.80;14.80;;;;;;;11.27;80.13;99924.64;436635;1288;142270;-62
2022/10/07 21:44:34;;;;;;;15.00;13.30;;;;;;;11.18;80.59;99914.66;436039;1275;142860;-63
2022/10/07 21:54:40;;;;;;;16.90;13.00;;;;;;;11.06;80.59;99908.42;431157;1281;142771;-62
2022/10/07 22:04:45;;;;;;;13.30;11.90;;;;;;;10.92;80.79;99896.98;428997;1281;141893;-62
2022/10/07 22:14:51;;;;;;;13.40;12.00;;;;;;;10.90;81.67;99888.70;436009;1279;142571;-62
2022/10/07 22:24:57;;;;;;;13.40;11.20;;;;;;;10.91;81.69;99878.31;436626;1274;143403;-62
2022/10/07 22:45:26;;;;;;;13.70;9.70;;;;;;;10.92;82.14;99846.55;436358;1284;211959;-63
2022/10/07 22:55:36;;;;;;;13.40;10.20;;;;;;;11.00;81.90;99836.73;432446;1274;142309;-62
2022/10/07 23:05:41;;;;;;;13.40;10.30;;;;;;;11.00;82.12;99826.75;431827;1282;195829;-62
2022/10/07 23:15:55;;;;;;;12.30;9.70;;;;;;;11.20;82.38;99826.61;436739;1281;141764;-62
2022/10/07 23:26:01;;;;;;;12.20;10.70;;;;;;;11.29;82.23;99819.77;436753;1284;143052;-62
2022/10/07 23:36:09;;;;;;;11.70;10.50;;;;;;;11.47;82.35;99802.42;435961;1275;142805;-63
2022/10/07 23:46:14;;;;;;;;;;;;;;;11.75;82.16;99788.77;436747;1283;141384;-63
2022/10/07 23:56:19;;;;;;;11.70;9.90;;;;;;;11.84;81.83;99773.95;431131;1274;185077;-62
